Details From LIPO - Montichiari
To LIPZ - Venezia Tessera
Flight Number -
Tags generated
Created
Modified
Stats Distance 85 nm / 158 km
Max Altitude 7,600 ft / 2,316 m
Waypoints 3
Social Downloads 2
Likes 0
Share VATSIM

Download

Looking for another format? Having issues loading an existing format? Contact us
Advertisement - Login to hide

Notes

Basic altitude profile: - Ascent Rate: 2500ft/min - Ascent Speed: 250kts - Cruise Altitude: 35000ft - Cruise Speed: 420kts - Descent Rate: 1500ft/min - Descent Speed: 250kts Options: - Use NATs: yes - Use PACOTS: yes - Use low airways: yes - Use high airways: yes

Route

LIPO VENDA LIPZ

ID Type Via Altitude Latitude Longitude Leg Dist Tot Dist Heading (true) Name
O LIPO APT - 0 ft / 0 m 45.42855˚ 10.33128˚ - 0 nm - Montichiari
VENDA FIX - 7,600 ft / 2,316 m 45.47333˚ 11.50083˚ 49 nm 49 nm 86° / 87° -
O LIPZ APT - 0 ft / 0 m 45.50479˚ 12.34969˚ 35 nm 85 nm 87° / 87° Venezia Tessera

Altitude Profile

Advertisement - Login to hide

LIPO

Details ICAO LIPO (VBS)
Name Montichiari
Region Italy
Timezone Europe/Rome (UTC+2.0)
Stats Elevation 344 ft / 105 m (AMSL)
Location 45.428548° 10.331283°
Runways 1
Magnetic Variation 2.787° E

METAR

LIPO 201150Z 15011KT 9999 FEW050 25/10 Q1016

Decode

TAF

TAF LIPO 201100Z 2012/2112 VRB05KT 9999 SCT060

Decode

Departure Runways

ID Width Length Bearing (true) Bearing (mag) Surface Threshold Offset Overrun Length
14 154 ft / 47 m 9,821 ft / 2,993 m 134.99° 132.20° Asphalt 984 ft / 300 m 0 ft / 0 m
32 154 ft / 47 m 9,821 ft / 2,993 m 315.01° 312.22° Asphalt 623 ft / 190 m 0 ft / 0 m

LIPZ

Details ICAO LIPZ (VCE)
Name Venezia Tessera
Region Italy
Timezone Europe/Rome (UTC+2.0)
Stats Elevation 7 ft / 2 m (AMSL)
Location 45.504791° 12.349691°
Runways 2
Magnetic Variation 3.228° E

METAR

LIPZ 201150Z 10010KT 9999 FEW035 24/13 Q1016 NOSIG

Decode

TAF

TAF LIPZ 201100Z 2012/2118 12010KT 9999 SCT040 BECMG 2018/2021 03013KT BECMG 2109/2111 13008KT

Decode

Destination Runways

ID Width Length Bearing (true) Bearing (mag) Surface Threshold Offset Overrun Length
04L 148 ft / 45 m 9,112 ft / 2,777 m 42.01° 38.78° Asphalt 312 ft / 95 m 0 ft / 0 m
04R 148 ft / 45 m 10,834 ft / 3,302 m 41.99° 38.76° Asphalt 0 ft / 0 m 0 ft / 0 m
22L 148 ft / 45 m 10,834 ft / 3,302 m 222.01° 218.78° Asphalt 0 ft / 0 m 0 ft / 0 m
22R 148 ft / 45 m 9,112 ft / 2,777 m 222.02° 218.79° Asphalt 0 ft / 0 m 0 ft / 0 m

Approach Navaids

Runway Type Ident Frequency Range Bearing (true) Bearing (mag) Slope Elevation
04R Localiser VTS 109.95 MHz 18 nm / 33 km 42.02° 38.79° - 13 ft / 4 m (AMSL)
04R Glidescope VTS 109.95 MHz 10 nm / 19 km 42.00° 38.77° 3.00° 52 ft / 16 m (AMSL)
04R DME VTS 109.95 MHz 18 nm / 33 km - - - 26 ft / 8 m (AMSL)

Popular Alternatives